KFMM

Fort Morgan Municipal Airport

Fort Morgan, Colorado, USA
METAR KFMM 221435Z AUTO 28007KT 10SM 06/00 A3019 RMK AO2 T00550001
Observed Flight Rules
Oct-22 @ 14:35 UTC (23 minutes ago)
Wind Visibility
280° at 7 knots 10 miles
Temperatures Readings
Current 6°C / 43°F
Dewpoint 0°C / 32°F
Humidity 66%
Altimeter 30.19" Hg
Pressure 1022 hPa
Elevation 1393
METAR KFMM 221435Z AUTO 28007KT 10SM 06/00 A3019 RMK AO2 T00550001
Observed Flight Rules
Oct-22 @ 14:35 UTC
(23 minutes ago)
Wind Visibility
280° at 7 knots 10 miles
Temperature Dewpoint
6°C / 43°F 0°C / 32°F
Humidity Altimeter Pressure
66% 30.19" Hg 1022 hPa